Time;durP1;ratioP1;P1;durP2;ratioP2;P2;SDS_P1;SDS_P2;PMS_P1;PMS_P2;Temp;Humidity;BMP_temperature;BMP_pressure;BME280_temperature;BME280_humidity;BME280_pressure;Samples;Min_cycle;Max_cycle;Signal;HPM_P1;HPM_P2
2022/03/16 00:02:11;;;;;;;;;;;7.50;99.90;;;;;;4964114;28;20585;-62
2022/03/16 00:04:38;;;;;;;20.75;4.97;;;7.50;99.90;;;;;;4963476;28;19994;-62
2022/03/16 00:07:05;;;;;;;;;;;7.50;99.90;;;;;;4965406;28;20373;-62
2022/03/16 00:09:32;;;;;;;33.42;4.32;;;7.50;99.90;;;;;;4966190;28;19925;-62
2022/03/16 00:11:58;;;;;;;;;;;7.50;99.90;;;;;;4966956;28;20052;-62
2022/03/16 00:14:26;;;;;;;23.48;4.15;;;7.50;99.90;;;;;;4965507;28;19921;-62
2022/03/16 00:16:53;;;;;;;40.05;4.60;;;7.60;99.90;;;;;;4964189;28;21142;-61
2022/03/16 00:19:20;;;;;;;28.23;5.72;;;7.60;99.90;;;;;;4966218;28;20231;-62
2022/03/16 00:21:47;;;;;;;;;;;7.60;99.90;;;;;;4966060;28;20912;-64
2022/03/16 00:24:14;;;;;;;26.45;5.07;;;7.60;99.90;;;;;;4964126;28;20101;-62
2022/03/16 00:26:41;;;;;;;26.05;4.00;;;7.60;99.90;;;;;;4964111;28;20034;-62
2022/03/16 00:29:08;;;;;;;21.98;3.80;;;7.70;99.90;;;;;;4966177;28;20496;-61
2022/03/16 00:31:35;;;;;;;16.33;4.65;;;7.70;99.90;;;;;;4964084;28;20060;-62
2022/03/16 00:34:02;;;;;;;29.77;5.25;;;7.70;99.90;;;;;;4965705;28;20034;-62
2022/03/16 00:36:29;;;;;;;41.28;6.53;;;7.80;99.90;;;;;;4962125;28;20049;-62
2022/03/16 00:38:56;;;;;;;;;;;7.80;99.90;;;;;;4966258;28;20319;-62
2022/03/16 00:41:23;;;;;;;18.58;4.35;;;7.70;99.90;;;;;;4965002;28;20220;-62
2022/03/16 00:43:50;;;;;;;15.73;4.40;;;7.80;99.90;;;;;;4962644;28;20045;-62
2022/03/16 00:46:16;;;;;;;;;;;7.70;99.90;;;;;;4965702;28;20050;-63
2022/03/16 00:48:43;;;;;;;23.08;3.55;;;7.80;99.90;;;;;;4963933;28;20182;-62
2022/03/16 00:51:12;;;;;;;18.65;4.78;;;7.80;99.90;;;;;;4964888;28;20238;-62
2022/03/16 00:53:40;;;;;;;23.05;4.95;;;7.80;99.90;;;;;;4964454;28;20053;-62
2022/03/16 00:56:08;;;;;;;16.52;5.07;;;7.80;99.90;;;;;;4962479;28;20048;-62
2022/03/16 00:58:35;;;;;;;24.13;4.93;;;7.70;99.90;;;;;;4947880;28;20042;-62
2022/03/16 01:01:07;;;;;;;16.73;4.05;;;7.80;99.90;;;;;;4964507;28;20057;-62
2022/03/16 01:03:35;;;;;;;19.67;3.45;;;7.80;99.90;;;;;;4965153;28;20186;-60
2022/03/16 01:06:02;;;;;;;34.17;5.22;;;7.80;99.90;;;;;;4961986;28;20037;-63
2022/03/16 01:08:29;;;;;;;13.40;3.42;;;7.90;99.90;;;;;;4963799;28;20041;-63
2022/03/16 01:10:56;;;;;;;;;;;7.90;99.90;;;;;;4965514;28;20046;-61
2022/03/16 01:13:24;;;;;;;21.92;4.28;;;7.90;99.90;;;;;;4963326;28;20469;-62
2022/03/16 01:15:51;;;;;;;;;;;7.90;99.90;;;;;;4965440;28;20045;-62
2022/03/16 01:18:18;;;;;;;19.65;4.72;;;7.90;99.90;;;;;;4964284;28;19936;-62
2022/03/16 01:20:47;;;;;;;14.05;4.68;;;7.90;99.90;;;;;;4963714;28;20366;-61
2022/03/16 01:23:13;;;;;;;16.88;4.45;;;7.90;99.90;;;;;;4961746;28;20895;-62
2022/03/16 01:25:40;;;;;;;;;;;7.80;99.90;;;;;;4965813;28;20042;-63
2022/03/16 01:28:07;;;;;;;19.15;3.42;;;7.80;99.90;;;;;;4963086;28;19929;-62
2022/03/16 01:30:34;;;;;;;14.25;3.35;;;7.80;99.90;;;;;;4962173;28;20042;-62
2022/03/16 01:33:02;;;;;;;13.00;4.03;;;7.80;99.90;;;;;;4964358;28;20258;-62
2022/03/16 01:35:29;;;;;;;;;;;7.70;99.90;;;;;;4961733;28;20045;-62
2022/03/16 01:37:56;;;;;;;13.00;4.20;;;7.80;99.90;;;;;;4963277;28;20036;-62
2022/03/16 01:40:23;;;;;;;22.98;4.03;;;7.70;99.90;;;;;;4964615;28;20583;-62
2022/03/16 01:42:52;;;;;;;10.80;3.25;;;7.70;99.90;;;;;;4960986;28;20041;-62
2022/03/16 01:45:19;;;;;;;;;;;7.70;99.90;;;;;;4965933;28;20358;-60
2022/03/16 01:47:46;;;;;;;9.70;3.13;;;7.70;99.90;;;;;;4960217;28;19945;-61
2022/03/16 01:50:14;;;;;;;9.52;3.85;;;7.70;99.90;;;;;;4956119;28;20049;-62
2022/03/16 01:52:41;;;;;;;16.98;3.58;;;7.60;99.90;;;;;;4962283;28;20591;-62
2022/03/16 01:55:08;;;;;;;9.77;2.92;;;7.60;99.90;;;;;;4964946;28;20064;-63
2022/03/16 01:57:39;;;;;;;15.70;3.83;;;7.60;99.90;;;;;;4965392;28;20773;-62
2022/03/16 02:00:07;;;;;;;12.88;2.88;;;7.60;99.90;;;;;;4965417;28;20116;-62
2022/03/16 02:02:41;;;;;;;13.68;3.47;;;7.60;99.90;;;;;;4965695;28;20621;-62
2022/03/16 02:05:10;;;;;;;10.13;3.65;;;7.60;99.90;;;;;;4964050;28;20147;-63
2022/03/16 02:07:38;;;;;;;26.20;4.93;;;7.60;99.90;;;;;;4967042;28;20766;-62
2022/03/16 02:10:05;;;;;;;9.50;3.20;;;7.60;99.90;;;;;;4967862;28;20042;-63
2022/03/16 02:12:46;;;;;;;15.70;3.63;;;7.60;99.90;;;;;;4967621;28;20061;-63
2022/03/16 02:15:13;;;;;;;10.98;3.35;;;7.60;99.90;;;;;;4967320;28;20069;-62
2022/03/16 02:17:40;;;;;;;10.13;3.45;;;7.60;99.90;;;;;;4968721;28;20042;-62
2022/03/16 02:20:08;;;;;;;22.90;3.67;;;7.70;99.90;;;;;;4967556;28;20038;-62
2022/03/16 02:22:37;;;;;;;8.25;3.33;;;7.70;99.90;;;;;;4968418;28;20045;-62
2022/03/16 02:25:07;;;;;;;21.35;4.70;;;7.70;99.90;;;;;;4967963;28;20057;-60
2022/03/16 02:27:34;;;;;;;16.60;3.25;;;7.70;99.90;;;;;;4966840;28;20052;-60
2022/03/16 02:30:01;;;;;;;;;;;7.70;99.90;;;;;;4967126;28;20306;-62
2022/03/16 02:32:27;;;;;;;9.90;3.47;;;7.70;99.90;;;;;;4966665;28;19984;-61
2022/03/16 02:34:54;;;;;;;18.30;4.38;;;7.70;99.90;;;;;;4965588;28;20042;-61
2022/03/16 02:37:21;;;;;;;11.25;2.80;;;7.70;99.90;;;;;;4967997;28;20084;-61
2022/03/16 02:39:48;;;;;;;;;;;7.70;99.90;;;;;;4966430;28;20222;-61
2022/03/16 02:42:15;;;;;;;29.98;4.80;;;7.70;99.90;;;;;;4968085;28;19921;-62
2022/03/16 02:44:42;;;;;;;;;;;7.70;99.90;;;;;;4966406;28;20057;-63
2022/03/16 02:47:09;;;;;;;21.65;5.38;;;7.70;99.90;;;;;;4968786;28;19925;-62
2022/03/16 02:49:36;;;;;;;19.92;4.50;;;7.70;99.90;;;;;;4966103;28;20045;-62
2022/03/16 02:52:07;;;;;;;;;;;7.70;99.90;;;;;;4967839;28;20093;-62
2022/03/16 02:54:35;;;;;;;11.45;4.07;;;7.70;99.90;;;;;;4967660;28;20272;-62
2022/03/16 02:57:02;;;;;;;29.52;4.25;;;7.80;99.90;;;;;;4965935;28;20050;-63
2022/03/16 02:59:28;;;;;;;22.83;4.22;;;7.70;99.90;;;;;;4967616;28;20049;-62
2022/03/16 03:01:55;;;;;;;13.93;4.65;;;7.70;99.90;;;;;;4967093;28;20042;-63
2022/03/16 03:04:23;;;;;;;13.25;3.47;;;7.70;99.90;;;;;;4965316;28;20046;-63
2022/03/16 03:06:50;;;;;;;27.08;3.75;;;7.60;99.90;;;;;;4965216;28;20319;-62
2022/03/16 03:09:17;;;;;;;;;;;7.60;99.90;;;;;;4968091;28;20068;-63
2022/03/16 03:11:44;;;;;;;8.00;3.80;;;7.60;99.90;;;;;;4967810;28;19921;-62
2022/03/16 03:14:10;;;;;;;17.08;5.45;;;7.60;99.90;;;;;;4963846;28;20038;-62
2022/03/16 03:16:37;;;;;;;;;;;7.50;99.90;;;;;;4967283;28;20125;-63
2022/03/16 03:19:04;;;;;;;9.55;3.45;;;7.50;99.90;;;;;;4966763;28;19921;-63
2022/03/16 03:21:31;;;;;;;8.60;3.05;;;7.50;99.90;;;;;;4966691;28;20034;-62
2022/03/16 03:23:58;;;;;;;;;;;7.40;99.90;;;;;;4967842;28;20045;-63
2022/03/16 03:26:25;;;;;;;12.93;2.90;;;7.40;99.90;;;;;;4963563;28;20055;-63
2022/03/16 03:28:52;;;;;;;9.95;3.75;;;7.40;99.90;;;;;;4967613;28;20045;-63
2022/03/16 03:31:18;;;;;;;10.30;3.55;;;7.40;99.90;;;;;;4967357;28;20086;-63
2022/03/16 03:33:45;;;;;;;8.30;2.92;;;7.30;99.90;;;;;;4965534;28;20049;-63
2022/03/16 03:36:12;;;;;;;;;;;7.30;99.90;;;;;;4966998;28;20137;-63
2022/03/16 03:38:39;;;;;;;10.57;3.95;;;7.30;99.90;;;;;;4966855;28;19928;-62
2022/03/16 03:41:06;;;;;;;;;;;7.20;99.90;;;;;;4966782;28;20346;-63
2022/03/16 03:43:33;;;;;;;14.27;3.88;;;7.20;99.90;;;;;;4965311;28;19921;-62
2022/03/16 03:45:59;;;;;;;;;;;7.10;99.90;;;;;;4964666;28;20347;-62
2022/03/16 03:48:26;;;;;;;12.73;4.80;;;7.10;99.90;;;;;;4964909;28;20110;-63
2022/03/16 03:50:53;;;;;;;;;;;7.00;99.90;;;;;;4966216;28;20227;-62
2022/03/16 03:53:20;;;;;;;20.17;3.85;;;6.90;99.90;;;;;;4964660;28;20469;-62
2022/03/16 03:55:47;;;;;;;;;;;6.80;99.90;;;;;;4966699;28;20210;-62
2022/03/16 03:58:13;;;;;;;18.85;4.40;;;6.80;99.90;;;;;;4966512;28;19922;-62
2022/03/16 04:00:40;;;;;;;;;;;6.70;99.90;;;;;;4965030;28;20046;-62
2022/03/16 04:03:07;;;;;;;17.75;4.80;;;6.70;99.90;;;;;;4962455;28;19925;-63
2022/03/16 04:05:34;;;;;;;22.42;5.53;;;6.60;99.90;;;;;;4964253;28;20033;-63
2022/03/16 04:08:01;;;;;;;;;;;6.60;99.90;;;;;;4966467;28;20049;-62
2022/03/16 04:10:28;;;;;;;17.77;4.40;;;6.60;99.90;;;;;;4965963;28;19932;-62
2022/03/16 04:12:56;;;;;;;13.50;4.70;;;6.60;99.90;;;;;;4966653;28;20053;-63
2022/03/16 04:15:23;;;;;;;9.50;4.05;;;6.50;99.90;;;;;;4965187;28;20049;-62
2022/03/16 04:17:49;;;;;;;;;;;6.50;99.90;;;;;;4964572;28;20127;-63
2022/03/16 04:20:16;;;;;;;11.35;4.25;;;6.50;99.90;;;;;;4966240;28;19933;-63
2022/03/16 04:22:43;;;;;;;;;;;6.50;99.90;;;;;;4966211;28;20492;-62
2022/03/16 04:25:10;;;;;;;11.07;4.22;;;6.50;99.90;;;;;;4965268;28;19936;-62
2022/03/16 04:27:37;;;;;;;;;;;6.50;99.90;;;;;;4965727;28;20172;-62
2022/03/16 04:30:04;;;;;;;18.20;6.05;;;6.40;99.90;;;;;;4966720;28;20082;-62
2022/03/16 04:32:31;;;;;;;14.73;5.25;;;6.40;99.90;;;;;;4966067;28;20202;-62
2022/03/16 04:34:58;;;;;;;;;;;6.40;99.90;;;;;;4964881;28;20964;-63
2022/03/16 04:37:25;;;;;;;19.85;4.85;;;6.40;99.90;;;;;;4965797;28;19929;-62
2022/03/16 04:39:52;;;;;;;30.88;5.55;;;6.40;99.90;;;;;;4965070;28;20052;-62
2022/03/16 04:42:19;;;;;;;;;;;6.40;99.90;;;;;;4966924;28;20038;-62
2022/03/16 04:44:45;;;;;;;19.58;4.88;;;6.30;99.90;;;;;;4963743;28;19999;-63
2022/03/16 04:47:12;;;;;;;;;;;6.30;99.90;;;;;;4966110;28;20326;-63
2022/03/16 04:49:39;;;;;;;20.83;6.28;;;6.30;99.90;;;;;;4966177;28;19925;-62
2022/03/16 04:52:06;;;;;;;;;;;6.30;99.90;;;;;;4965895;28;20041;-62
2022/03/16 04:54:33;;;;;;;11.77;4.00;;;6.30;99.90;;;;;;4962880;28;20138;-62
2022/03/16 04:57:00;;;;;;;14.13;5.32;;;6.30;99.90;;;;;;4962475;28;20250;-62
2022/03/16 04:59:27;;;;;;;;;;;6.30;99.90;;;;;;4966539;28;20048;-62
2022/03/16 05:01:54;;;;;;;15.55;4.30;;;6.30;99.90;;;;;;4964646;28;20336;-62
2022/03/16 05:04:21;;;;;;;10.55;4.00;;;6.30;99.90;;;;;;4964714;28;20810;-62
2022/03/16 05:06:48;;;;;;;13.02;4.68;;;6.20;99.90;;;;;;4964474;28;20056;-62
2022/03/16 05:09:15;;;;;;;16.80;5.15;;;6.30;99.90;;;;;;4964098;28;20149;-61
2022/03/16 05:11:42;;;;;;;14.30;4.78;;;6.20;99.90;;;;;;4965689;28;20112;-62
2022/03/16 05:14:09;;;;;;;12.95;5.05;;;6.20;99.90;;;;;;4964369;28;20064;-62
2022/03/16 05:16:37;;;;;;;20.90;4.95;;;6.20;99.90;;;;;;4965601;28;20049;-62
2022/03/16 05:19:05;;;;;;;15.00;4.32;;;6.20;99.90;;;;;;4963837;28;20655;-62
2022/03/16 05:21:32;;;;;;;14.15;4.78;;;6.20;99.90;;;;;;4946465;28;20045;-62
2022/03/16 05:23:58;;;;;;;20.52;4.40;;;6.20;99.90;;;;;;4964948;28;20054;-62
2022/03/16 05:26:25;;;;;;;20.05;5.10;;;6.10;99.90;;;;;;4965177;28;20448;-62
2022/03/16 05:28:53;;;;;;;17.60;5.18;;;6.10;99.90;;;;;;4965149;28;20049;-62
2022/03/16 05:31:20;;;;;;;13.52;4.80;;;6.10;99.90;;;;;;4962474;28;20045;-63
2022/03/16 05:33:48;;;;;;;14.90;4.90;;;6.10;99.90;;;;;;4964448;28;20043;-62
2022/03/16 05:36:16;;;;;;;17.73;5.55;;;6.10;99.90;;;;;;4963403;28;20323;-62
2022/03/16 05:38:43;;;;;;;15.95;5.53;;;6.10;99.90;;;;;;4963712;28;20041;-62
2022/03/16 05:41:11;;;;;;;;;;;6.10;99.90;;;;;;4965255;28;20225;-62
2022/03/16 05:43:38;;;;;;;16.45;4.85;;;6.10;99.90;;;;;;4963238;28;20192;-62
2022/03/16 05:46:05;;;;;;;28.27;5.35;;;6.10;99.90;;;;;;4964219;28;20554;-63
2022/03/16 05:48:32;;;;;;;15.55;4.78;;;6.10;99.90;;;;;;4963419;28;20042;-63
2022/03/16 05:50:59;;;;;;;19.45;5.63;;;6.10;99.90;;;;;;4965535;28;20046;-63
2022/03/16 05:53:26;;;;;;;15.68;5.07;;;6.10;99.90;;;;;;4962628;28;20042;-62
2022/03/16 05:55:53;;;;;;;12.48;4.60;;;6.10;99.90;;;;;;4964360;28;20109;-62
2022/03/16 05:58:21;;;;;;;16.88;4.72;;;6.10;99.90;;;;;;4965523;28;20044;-62
2022/03/16 06:00:48;;;;;;;12.25;4.72;;;6.10;99.90;;;;;;4964187;28;20042;-62
2022/03/16 06:03:15;;;;;;;11.10;4.28;;;6.10;99.90;;;;;;4961557;28;20157;-63
2022/03/16 06:05:42;;;;;;;12.20;4.80;;;6.20;99.90;;;;;;4961778;28;20140;-62
2022/03/16 06:08:09;;;;;;;;;;;6.10;99.90;;;;;;4965601;28;20050;-62
2022/03/16 06:10:36;;;;;;;5.53;3.38;;;6.20;99.90;;;;;;4964062;28;19925;-62
2022/03/16 06:13:04;;;;;;;18.15;5.70;;;6.20;99.90;;;;;;4963750;28;20180;-62
2022/03/16 06:15:42;;;;;;;14.07;6.05;;;6.20;99.90;;;;;;4964136;28;20054;-62
2022/03/16 06:18:09;;;;;;;13.95;5.22;;;6.20;99.90;;;;;;4964650;28;20085;-62
2022/03/16 06:20:36;;;;;;;14.65;5.32;;;6.20;99.90;;;;;;4947809;28;20041;-63
2022/03/16 06:23:05;;;;;;;9.82;4.40;;;6.20;99.90;;;;;;4963635;28;20042;-62
2022/03/16 06:25:38;;;;;;;14.60;4.68;;;6.30;99.90;;;;;;4964533;28;20137;-62
2022/03/16 06:28:05;;;;;;;16.48;5.53;;;6.30;99.90;;;;;;4965617;28;20045;-57
2022/03/16 06:30:32;;;;;;;10.38;4.10;;;6.30;99.90;;;;;;4962843;28;20053;-56
2022/03/16 06:32:58;;;;;;;;;;;6.30;99.90;;;;;;4964499;28;20862;-56
2022/03/16 06:35:25;;;;;;;20.45;5.70;;;6.40;99.90;;;;;;4963465;28;19929;-57
2022/03/16 06:37:52;;;;;;;;;;;6.50;99.90;;;;;;4964547;28;20831;-58
2022/03/16 06:40:19;;;;;;;11.30;4.38;;;6.50;99.90;;;;;;4966591;28;20336;-58
2022/03/16 06:42:53;;;;;;;8.30;4.28;;;6.50;99.90;;;;;;4967868;28;20046;-57
2022/03/16 06:45:22;;;;;;;11.18;5.00;;;6.60;99.90;;;;;;4967064;28;20038;-56
2022/03/16 06:47:50;;;;;;;13.68;5.10;;;6.70;99.90;;;;;;4967005;28;20081;-58
2022/03/16 06:50:18;;;;;;;14.63;4.78;;;6.80;99.90;;;;;;4967270;28;20078;-57
2022/03/16 06:52:45;;;;;;;10.73;5.15;;;7.00;99.90;;;;;;4965776;28;20226;-61
2022/03/16 06:55:12;;;;;;;;;;;7.10;99.90;;;;;;4966812;28;20159;-58
2022/03/16 06:57:39;;;;;;;12.00;5.33;;;7.20;99.90;;;;;;4967660;28;20788;-57
2022/03/16 07:00:07;;;;;;;;;;;7.40;99.90;;;;;;4965963;28;20479;-58
2022/03/16 07:02:49;;;;;;;;;;;7.50;99.90;;;;;;4968080;28;20565;-57
2022/03/16 07:05:16;;;;;;;20.13;5.68;;;7.70;99.90;;;;;;4966809;28;19925;-58
2022/03/16 07:07:48;;;;;;;15.25;5.18;;;7.90;99.90;;;;;;4966362;28;20187;-59
2022/03/16 07:10:14;;;;;;;;;;;8.00;99.90;;;;;;4967440;28;20178;-57
2022/03/16 07:12:41;;;;;;;8.40;4.30;;;8.20;99.90;;;;;;4967219;28;20068;-57
2022/03/16 07:15:09;;;;;;;;;;;8.40;99.90;;;;;;4967345;28;20501;-58
2022/03/16 07:17:36;;;;;;;14.63;5.18;;;8.60;99.90;;;;;;4965823;28;19965;-58
2022/03/16 07:20:04;;;;;;;13.98;5.00;;;8.80;99.90;;;;;;4965612;28;20564;-62
2022/03/16 07:22:31;;;;;;;10.82;4.78;;;9.00;99.90;;;;;;4966881;28;20038;-55
2022/03/16 07:25:17;;;;;;;17.20;5.32;;;9.20;99.90;;;;;;4967037;28;20042;-55
2022/03/16 07:27:44;;;;;;;13.48;4.38;;;9.40;99.90;;;;;;4965000;28;20046;-59
2022/03/16 07:30:11;;;;;;;;;;;9.60;99.90;;;;;;4968815;28;20046;-58
2022/03/16 07:32:39;;;;;;;11.05;4.75;;;9.80;99.90;;;;;;4968096;28;20398;-58
2022/03/16 07:35:09;;;;;;;11.98;4.75;;;10.00;99.90;;;;;;4963851;28;20037;-59
2022/03/16 07:37:37;;;;;;;14.40;5.18;;;10.20;99.90;;;;;;4964505;28;20370;-59
2022/03/16 07:40:06;;;;;;;16.95;4.85;;;10.40;99.90;;;;;;4964527;28;20042;-59
2022/03/16 07:42:35;;;;;;;17.92;5.00;;;10.60;99.90;;;;;;4963788;28;20057;-58
2022/03/16 07:45:04;;;;;;;15.13;5.10;;;10.80;99.90;;;;;;4965339;28;20049;-58
2022/03/16 07:47:31;;;;;;;16.17;4.88;;;11.00;99.90;;;;;;4967804;28;20540;-59
2022/03/16 07:50:09;;;;;;;13.57;5.13;;;11.20;99.90;;;;;;4967147;28;20552;-59
2022/03/16 07:52:36;;;;;;;19.27;5.32;;;11.50;99.90;;;;;;4964213;28;20164;-59
2022/03/16 07:55:06;;;;;;;19.23;5.57;;;11.60;99.90;;;;;;4965719;28;20078;-59
2022/03/16 07:57:34;;;;;;;16.05;4.70;;;11.70;99.90;;;;;;4966201;28;20082;-58
2022/03/16 08:00:03;;;;;;;23.92;5.25;;;11.90;99.90;;;;;;4964404;28;20617;-56
2022/03/16 08:02:30;;;;;;;11.57;4.90;;;12.10;99.90;;;;;;4963509;28;20107;-56
2022/03/16 08:05:00;;;;;;;18.45;4.72;;;12.20;99.90;;;;;;4964191;28;20127;-58
2022/03/16 08:07:28;;;;;;;25.08;5.97;;;12.40;99.90;;;;;;4963065;28;20057;-56
2022/03/16 08:09:56;;;;;;;11.55;4.25;;;12.70;99.90;;;;;;4966397;28;20038;-59
2022/03/16 08:12:24;;;;;;;14.35;4.88;;;12.90;99.90;;;;;;4966075;28;20605;-58
2022/03/16 08:14:51;;;;;;;25.10;5.80;;;13.10;99.90;;;;;;4975934;28;20046;-57
2022/03/16 08:17:18;;;;;;;15.02;4.35;;;13.40;99.90;;;;;;4996229;28;20042;-58
2022/03/16 08:19:46;;;;;;;23.77;5.55;;;13.60;99.90;;;;;;4996409;28;20180;-59
2022/03/16 08:22:12;;;;;;;20.23;5.32;;;13.70;99.90;;;;;;4996151;28;20650;-55
2022/03/16 08:24:39;;;;;;;9.27;4.13;;;14.00;99.90;;;;;;4984731;28;20077;-54
2022/03/16 08:27:17;;;;;;;14.88;4.63;;;14.20;99.90;;;;;;4968671;28;20715;-55
2022/03/16 08:29:45;;;;;;;11.65;4.88;;;14.40;99.10;;;;;;4968933;28;20211;-60
2022/03/16 08:32:12;;;;;;;12.02;4.50;;;14.70;97.70;;;;;;4969918;28;20042;-55
2022/03/16 08:34:39;;;;;;;21.60;4.68;;;14.90;97.50;;;;;;4968341;28;20573;-65
2022/03/16 08:37:06;;;;;;;14.43;4.85;;;15.10;95.30;;;;;;4969935;28;20951;-58
2022/03/16 08:39:38;;;;;;;10.65;4.47;;;15.30;95.90;;;;;;4970001;28;20065;-58
2022/03/16 08:42:06;;;;;;;13.40;4.05;;;15.60;95.20;;;;;;4969574;28;20045;-57
2022/03/16 08:44:34;;;;;;;14.95;4.75;;;15.80;94.90;;;;;;4967185;28;20183;-58
2022/03/16 08:47:01;;;;;;;14.40;5.22;;;16.10;93.80;;;;;;4969795;28;20053;-56
2022/03/16 08:49:29;;;;;;;16.15;5.32;;;16.30;92.10;;;;;;4967859;28;20038;-55
2022/03/16 08:51:58;;;;;;;12.90;4.55;;;16.50;90.70;;;;;;4968363;28;20045;-57
2022/03/16 08:54:26;;;;;;;18.58;5.07;;;16.70;88.20;;;;;;4969676;28;20037;-52
2022/03/16 08:56:54;;;;;;;11.57;4.70;;;16.90;89.70;;;;;;4968024;28;20038;-54
2022/03/16 08:59:22;;;;;;;11.98;4.18;;;17.10;88.80;;;;;;4969652;28;20052;-54
2022/03/16 09:01:50;;;;;;;12.68;4.07;;;17.30;85.00;;;;;;4967879;28;20128;-53
2022/03/16 09:04:18;;;;;;;12.32;5.10;;;17.50;81.90;;;;;;4968129;28;20050;-53
2022/03/16 09:06:45;;;;;;;13.45;4.28;;;17.60;80.90;;;;;;4968009;28;20050;-52
2022/03/16 09:09:12;;;;;;;19.25;5.63;;;17.80;81.00;;;;;;4968596;28;20839;-52
2022/03/16 09:11:40;;;;;;;12.90;4.15;;;17.90;80.50;;;;;;4969756;28;20808;-52
2022/03/16 09:14:07;;;;;;;12.93;4.43;;;18.00;81.00;;;;;;4968466;28;20688;-51
2022/03/16 09:16:34;;;;;;;19.45;4.55;;;18.20;79.30;;;;;;4969485;28;20152;-53
2022/03/16 09:19:02;;;;;;;16.85;3.60;;;18.30;78.30;;;;;;4969552;28;20046;-53
2022/03/16 09:21:29;;;;;;;12.82;4.60;;;18.50;76.40;;;;;;4951658;28;20042;-53
2022/03/16 09:23:55;;;;;;;19.65;5.78;;;18.60;77.00;;;;;;4968958;28;20037;-52
2022/03/16 09:26:22;;;;;;;19.10;5.95;;;18.70;75.10;;;;;;4968769;28;20196;-56
2022/03/16 09:28:50;;;;;;;17.70;5.10;;;18.80;73.40;;;;;;4966996;28;20048;-55
2022/03/16 09:31:17;;;;;;;15.95;4.88;;;18.80;74.40;;;;;;4967577;28;20654;-51
2022/03/16 09:33:44;;;;;;;15.75;4.65;;;18.80;75.10;;;;;;4965886;28;20143;-50
2022/03/16 09:36:12;;;;;;;18.98;5.57;;;18.80;75.70;;;;;;4968143;28;20099;-52
2022/03/16 09:38:39;;;;;;;10.27;5.55;;;18.90;74.90;;;;;;4967967;28;20051;-49
2022/03/16 09:41:06;;;;;;;17.30;6.00;;;18.80;74.50;;;;;;4967902;28;20061;-48
2022/03/16 09:43:35;;;;;;;16.80;5.97;;;18.80;74.50;;;;;;4965050;28;20042;-55
2022/03/16 09:46:02;;;;;;;21.67;6.47;;;18.80;73.10;;;;;;4966010;28;20040;-55
2022/03/16 09:48:31;;;;;;;17.52;6.70;;;18.60;74.20;;;;;;4969683;28;20038;-54
2022/03/16 09:50:58;;;;;;;25.13;7.80;;;18.60;75.40;;;;;;4968756;28;20057;-54
2022/03/16 09:53:29;;;;;;;21.55;7.75;;;18.60;74.60;;;;;;4967841;28;20038;-63
2022/03/16 09:55:56;;;;;;;17.80;8.13;;;18.50;75.00;;;;;;4965168;28;20052;-55
2022/03/16 09:58:23;;;;;;;16.85;8.13;;;18.40;74.80;;;;;;4967548;28;20052;-54
2022/03/16 10:00:53;;;;;;;18.55;9.70;;;18.20;74.90;;;;;;4968025;28;20559;-54
2022/03/16 10:03:28;;;;;;;16.70;9.35;;;18.00;75.80;;;;;;4965947;28;20049;-55
2022/03/16 10:05:57;;;;;;;23.92;8.63;;;17.80;76.70;;;;;;4965985;28;20936;-55
2022/03/16 10:08:33;;;;;;;26.33;9.95;;;17.70;76.70;;;;;;4969167;28;20049;-54
2022/03/16 10:14:08;;;;;;;12.05;8.30;;;17.80;79.80;;;;;;4964029;28;20057;-54
2022/03/16 10:19:48;;;;;;;17.23;9.82;;;17.90;78.70;;;;;;4911202;28;20047;-55
2022/03/16 10:22:30;;;;;;;15.48;9.43;;;18.00;77.60;;;;;;4925147;28;20240;-53
2022/03/16 10:25:06;;;;;;;16.67;9.10;;;18.00;77.70;;;;;;4932172;28;20462;-54
2022/03/16 10:27:37;;;;;;;23.15;9.77;;;18.00;77.90;;;;;;4965661;28;20049;-54
2022/03/16 10:30:07;;;;;;;24.52;11.15;;;18.00;76.50;;;;;;4966600;28;20046;-55
2022/03/16 10:32:40;;;;;;;21.45;11.05;;;17.90;76.30;;;;;;4965342;28;20977;-55
2022/03/16 10:35:08;;;;;;;17.58;9.05;;;17.80;77.50;;;;;;4965147;28;20053;-55
2022/03/16 10:37:39;;;;;;;19.33;9.55;;;17.90;77.00;;;;;;4964816;28;20139;-55
2022/03/16 10:40:15;;;;;;;15.60;8.90;;;18.00;77.50;;;;;;4967317;28;20045;-55
2022/03/16 10:48:16;;;;;;;14.93;8.40;;;18.50;75.70;;;;;;4964764;28;20152;-55
2022/03/16 10:50:44;;;;;;;22.23;10.68;;;18.70;74.70;;;;;;4963529;28;20373;-55
2022/03/16 10:53:14;;;;;;;23.55;9.50;;;18.80;73.60;;;;;;4965018;28;20042;-55
2022/03/16 10:55:43;;;;;;;14.63;8.57;;;18.80;73.90;;;;;;4963965;28;20042;-54
2022/03/16 10:58:12;;;;;;;15.93;8.80;;;18.70;71.30;;;;;;4962488;28;20041;-55
2022/03/16 11:00:40;;;;;;;21.13;9.05;;;18.50;71.90;;;;;;4963972;28;20731;-54
2022/03/16 11:03:16;;;;;;;16.60;5.45;;;18.40;72.50;;;;;;4961384;28;20085;-55
2022/03/16 11:05:43;;;;;;;11.75;5.32;;;18.30;68.80;;;;;;4962839;28;20127;-55
2022/03/16 11:08:11;;;;;;;13.90;5.75;;;18.30;68.70;;;;;;4964831;28;20508;-54
2022/03/16 11:10:42;;;;;;;14.55;4.78;;;18.20;66.80;;;;;;4965845;28;20046;-54
2022/03/16 11:13:29;;;;;;;20.65;6.15;;;18.20;67.90;;;;;;4964949;28;20045;-54
2022/03/16 11:15:58;;;;;;;14.65;4.20;;;18.10;68.50;;;;;;4964259;28;20065;-53
2022/03/16 11:18:26;;;;;;;8.13;4.63;;;18.00;67.30;;;;;;4965970;28;20037;-54
2022/03/16 11:21:05;;;;;;;19.90;5.22;;;17.90;66.60;;;;;;4966154;28;20213;-55
2022/03/16 11:26:49;;;;;;;18.27;5.22;;;17.70;68.30;;;;;;4965997;28;20033;-54
2022/03/16 11:29:40;;;;;;;12.65;5.65;;;17.70;67.40;;;;;;4965532;28;20049;-56
2022/03/16 11:32:08;;;;;;;9.48;4.70;;;17.60;69.60;;;;;;4936558;28;20042;-56
2022/03/16 11:34:36;;;;;;;14.85;5.93;;;17.50;69.30;;;;;;4963454;28;20124;-55
2022/03/16 11:37:09;;;;;;;13.07;6.03;;;17.50;67.10;;;;;;4963521;28;20746;-55
2022/03/16 11:39:41;;;;;;;15.77;5.30;;;17.30;68.30;;;;;;4964578;28;20038;-56
2022/03/16 11:42:09;;;;;;;17.90;5.68;;;17.20;68.40;;;;;;4948110;28;20559;-56
2022/03/16 11:44:38;;;;;;;18.58;4.82;;;17.10;67.70;;;;;;4963445;28;20046;-56
2022/03/16 11:47:11;;;;;;;11.70;4.50;;;17.00;67.20;;;;;;4965021;28;20045;-57
2022/03/16 11:49:44;;;;;;;21.40;5.18;;;16.90;67.70;;;;;;4963869;28;20041;-56
2022/03/16 11:52:12;;;;;;;16.05;4.38;;;16.90;67.20;;;;;;4964060;28;20042;-57
2022/03/16 11:54:48;;;;;;;15.93;3.95;;;16.90;68.30;;;;;;4965268;28;20045;-56
2022/03/16 11:57:35;;;;;;;13.55;4.93;;;16.80;66.30;;;;;;4962078;28;20108;-55
2022/03/16 12:00:14;;;;;;;12.93;4.30;;;16.80;65.80;;;;;;4963716;28;20820;-56
2022/03/16 12:02:42;;;;;;;10.98;4.95;;;16.80;66.20;;;;;;4965649;28;20439;-56
2022/03/16 12:05:10;;;;;;;16.08;4.50;;;16.70;66.50;;;;;;4964842;28;20052;-56
2022/03/16 12:07:36;;;;;;;11.27;4.70;;;16.70;67.60;;;;;;4964291;28;20042;-56
2022/03/16 12:10:12;;;;;;;12.05;5.32;;;16.70;68.40;;;;;;4963969;28;20054;-56
2022/03/16 12:12:57;;;;;;;14.05;5.18;;;16.70;67.70;;;;;;4965088;28;20696;-56
2022/03/16 12:15:41;;;;;;;15.02;5.82;;;16.60;67.60;;;;;;4964547;28;20070;-56
2022/03/16 12:18:14;;;;;;;21.63;6.13;;;16.40;66.60;;;;;;4964460;28;20127;-55
2022/03/16 12:20:45;;;;;;;26.42;5.28;;;16.30;68.00;;;;;;4964661;28;20045;-56
2022/03/16 12:23:18;;;;;;;14.63;5.80;;;16.10;67.20;;;;;;4964461;28;20038;-55
2022/03/16 12:25:47;;;;;;;20.25;6.07;;;16.00;67.70;;;;;;4963001;28;20478;-55
2022/03/16 12:31:11;;;;;;;17.50;6.00;;;15.80;69.10;;;;;;4965299;28;20045;-55
2022/03/16 12:33:41;;;;;;;18.75;5.97;;;15.60;70.60;;;;;;4962084;28;20133;-56
2022/03/16 12:36:24;;;;;;;21.08;5.15;;;15.60;71.10;;;;;;4965131;28;20050;-56
2022/03/16 12:38:54;;;;;;;19.90;6.07;;;15.50;71.50;;;;;;4964036;28;20049;-55
2022/03/16 12:44:13;;;;;;;19.20;6.25;;;15.30;72.40;;;;;;4962201;28;20046;-56
2022/03/16 12:46:47;;;;;;;22.90;8.73;;;15.20;73.20;;;;;;4963762;28;20148;-55
2022/03/16 12:49:16;;;;;;;19.65;8.02;;;15.10;73.80;;;;;;4964304;28;20046;-56
2022/03/16 12:51:49;;;;;;;26.48;7.55;;;15.00;74.50;;;;;;4961481;28;20048;-55
2022/03/16 12:54:21;;;;;;;24.30;8.32;;;14.90;76.10;;;;;;4962015;28;20042;-56
2022/03/16 12:56:53;;;;;;;19.05;7.82;;;14.80;76.30;;;;;;4964388;28;20100;-56
2022/03/16 12:59:24;;;;;;;34.20;7.47;;;14.80;76.10;;;;;;4959668;28;20042;-56
2022/03/16 13:01:52;;;;;;;19.35;6.47;;;14.70;76.00;;;;;;4960732;28;20932;-56
2022/03/16 13:04:19;;;;;;;18.20;6.63;;;14.70;76.60;;;;;;4960051;28;20330;-56
2022/03/16 13:06:46;;;;;;;22.63;6.68;;;14.70;77.10;;;;;;4959779;28;20038;-54
2022/03/16 13:09:13;;;;;;;19.27;7.32;;;14.60;78.00;;;;;;4960641;28;20042;-54
2022/03/16 13:11:40;;;;;;;;;;;14.60;79.80;;;;;;4953746;28;20053;-55
2022/03/16 13:14:19;;;;;;;24.67;8.33;;;14.60;79.30;;;;;;4949368;28;19921;-56
2022/03/16 13:16:47;;;;;;;25.35;8.70;;;14.60;81.00;;;;;;4958806;28;20069;-56
2022/03/16 13:19:25;;;;;;;29.60;9.73;;;14.60;81.20;;;;;;4961994;28;20050;-55
2022/03/16 13:22:02;;;;;;;28.75;11.90;;;14.60;82.40;;;;;;4964559;28;20049;-55
2022/03/16 13:24:31;;;;;;;24.65;11.38;;;14.60;84.40;;;;;;4961990;28;20052;-57